sensor_id;sensor_type;location;lat;lon;timestamp;P1;durP1;ratioP1;P2;durP2;ratioP2
24137;SDS011;17947;50.672;6.076;2023-03-14T00:02:19;0.45;;;0.40;;
24137;SDS011;17947;50.672;6.076;2023-03-14T00:04:45;1.02;;;0.50;;
24137;SDS011;17947;50.672;6.076;2023-03-14T00:07:11;0.50;;;0.50;;
24137;SDS011;17947;50.672;6.076;2023-03-14T00:09:37;2.00;;;0.70;;
24137;SDS011;17947;50.672;6.076;2023-03-14T00:12:03;0.55;;;0.45;;
24137;SDS011;17947;50.672;6.076;2023-03-14T00:14:31;1.00;;;0.65;;
24137;SDS011;17947;50.672;6.076;2023-03-14T00:16:57;0.90;;;0.70;;
24137;SDS011;17947;50.672;6.076;2023-03-14T00:19:23;0.73;;;0.47;;
24137;SDS011;17947;50.672;6.076;2023-03-14T00:21:49;0.60;;;0.60;;
24137;SDS011;17947;50.672;6.076;2023-03-14T00:24:15;0.52;;;0.43;;
24137;SDS011;17947;50.672;6.076;2023-03-14T00:26:41;1.52;;;0.65;;
24137;SDS011;17947;50.672;6.076;2023-03-14T00:29:07;1.48;;;0.60;;
24137;SDS011;17947;50.672;6.076;2023-03-14T00:31:33;1.00;;;0.50;;
24137;SDS011;17947;50.672;6.076;2023-03-14T00:34:00;0.70;;;0.52;;
24137;SDS011;17947;50.672;6.076;2023-03-14T00:36:26;1.02;;;0.50;;
24137;SDS011;17947;50.672;6.076;2023-03-14T00:38:53;0.90;;;0.50;;
24137;SDS011;17947;50.672;6.076;2023-03-14T00:41:20;1.13;;;0.70;;
24137;SDS011;17947;50.672;6.076;2023-03-14T00:43:49;0.50;;;0.47;;
24137;SDS011;17947;50.672;6.076;2023-03-14T00:46:15;0.95;;;0.60;;
24137;SDS011;17947;50.672;6.076;2023-03-14T00:48:41;2.55;;;0.60;;
24137;SDS011;17947;50.672;6.076;2023-03-14T00:51:08;2.35;;;0.80;;
24137;SDS011;17947;50.672;6.076;2023-03-14T00:53:34;0.68;;;0.60;;
24137;SDS011;17947;50.672;6.076;2023-03-14T00:56:05;0.50;;;0.50;;
24137;SDS011;17947;50.672;6.076;2023-03-14T00:58:31;1.15;;;0.60;;
24137;SDS011;17947;50.672;6.076;2023-03-14T01:00:57;0.63;;;0.63;;
24137;SDS011;17947;50.672;6.076;2023-03-14T01:03:23;2.35;;;0.68;;
24137;SDS011;17947;50.672;6.076;2023-03-14T01:05:49;0.60;;;0.50;;
24137;SDS011;17947;50.672;6.076;2023-03-14T01:08:16;0.93;;;0.38;;
24137;SDS011;17947;50.672;6.076;2023-03-14T01:10:42;1.38;;;0.57;;
24137;SDS011;17947;50.672;6.076;2023-03-14T01:13:09;0.50;;;0.50;;
24137;SDS011;17947;50.672;6.076;2023-03-14T01:15:35;0.52;;;0.50;;
24137;SDS011;17947;50.672;6.076;2023-03-14T01:18:02;0.98;;;0.50;;
24137;SDS011;17947;50.672;6.076;2023-03-14T01:20:28;0.60;;;0.40;;
24137;SDS011;17947;50.672;6.076;2023-03-14T01:22:54;0.45;;;0.45;;
24137;SDS011;17947;50.672;6.076;2023-03-14T01:25:20;0.73;;;0.47;;
24137;SDS011;17947;50.672;6.076;2023-03-14T01:27:46;0.68;;;0.50;;
24137;SDS011;17947;50.672;6.076;2023-03-14T01:30:12;0.80;;;0.60;;
24137;SDS011;17947;50.672;6.076;2023-03-14T01:32:39;1.50;;;0.68;;
24137;SDS011;17947;50.672;6.076;2023-03-14T01:35:05;0.77;;;0.45;;
24137;SDS011;17947;50.672;6.076;2023-03-14T01:37:31;0.45;;;0.40;;
24137;SDS011;17947;50.672;6.076;2023-03-14T01:39:57;0.55;;;0.47;;
24137;SDS011;17947;50.672;6.076;2023-03-14T01:42:23;0.30;;;0.30;;
24137;SDS011;17947;50.672;6.076;2023-03-14T01:44:50;1.00;;;0.40;;
24137;SDS011;17947;50.672;6.076;2023-03-14T01:47:17;0.98;;;0.40;;
24137;SDS011;17947;50.672;6.076;2023-03-14T01:49:43;0.90;;;0.45;;
24137;SDS011;17947;50.672;6.076;2023-03-14T01:52:10;1.23;;;0.57;;
24137;SDS011;17947;50.672;6.076;2023-03-14T01:54:39;0.73;;;0.52;;
24137;SDS011;17947;50.672;6.076;2023-03-14T01:57:11;0.88;;;0.52;;
24137;SDS011;17947;50.672;6.076;2023-03-14T01:59:38;0.73;;;0.60;;
24137;SDS011;17947;50.672;6.076;2023-03-14T02:02:06;0.47;;;0.40;;
24137;SDS011;17947;50.672;6.076;2023-03-14T02:04:33;0.43;;;0.43;;
24137;SDS011;17947;50.672;6.076;2023-03-14T02:07:20;0.57;;;0.40;;
24137;SDS011;17947;50.672;6.076;2023-03-14T02:09:48;1.42;;;0.60;;
24137;SDS011;17947;50.672;6.076;2023-03-14T02:12:15;0.77;;;0.50;;
24137;SDS011;17947;50.672;6.076;2023-03-14T02:14:41;0.52;;;0.40;;
24137;SDS011;17947;50.672;6.076;2023-03-14T02:17:13;0.98;;;0.47;;
24137;SDS011;17947;50.672;6.076;2023-03-14T02:22:12;0.90;;;0.40;;
24137;SDS011;17947;50.672;6.076;2023-03-14T02:29:37;0.73;;;0.40;;
24137;SDS011;17947;50.672;6.076;2023-03-14T02:32:05;0.98;;;0.47;;
24137;SDS011;17947;50.672;6.076;2023-03-14T02:34:31;0.70;;;0.52;;
24137;SDS011;17947;50.672;6.076;2023-03-14T02:36:58;0.30;;;0.30;;
24137;SDS011;17947;50.672;6.076;2023-03-14T02:39:26;0.90;;;0.50;;
24137;SDS011;17947;50.672;6.076;2023-03-14T02:41:53;0.50;;;0.30;;
24137;SDS011;17947;50.672;6.076;2023-03-14T02:44:19;0.65;;;0.60;;
24137;SDS011;17947;50.672;6.076;2023-03-14T02:46:45;0.52;;;0.50;;
24137;SDS011;17947;50.672;6.076;2023-03-14T02:49:12;1.40;;;0.50;;
24137;SDS011;17947;50.672;6.076;2023-03-14T02:51:39;0.52;;;0.40;;
24137;SDS011;17947;50.672;6.076;2023-03-14T02:54:05;1.05;;;0.50;;
24137;SDS011;17947;50.672;6.076;2023-03-14T02:56:31;1.25;;;0.38;;
24137;SDS011;17947;50.672;6.076;2023-03-14T02:58:57;0.38;;;0.32;;
24137;SDS011;17947;50.672;6.076;2023-03-14T03:01:24;0.35;;;0.35;;
24137;SDS011;17947;50.672;6.076;2023-03-14T03:03:50;1.15;;;0.50;;
24137;SDS011;17947;50.672;6.076;2023-03-14T03:06:16;0.50;;;0.40;;
24137;SDS011;17947;50.672;6.076;2023-03-14T03:08:42;0.40;;;0.40;;
24137;SDS011;17947;50.672;6.076;2023-03-14T03:11:08;0.50;;;0.40;;
24137;SDS011;17947;50.672;6.076;2023-03-14T03:13:34;0.73;;;0.38;;
24137;SDS011;17947;50.672;6.076;2023-03-14T03:16:00;0.50;;;0.30;;
24137;SDS011;17947;50.672;6.076;2023-03-14T03:18:26;0.60;;;0.45;;
24137;SDS011;17947;50.672;6.076;2023-03-14T03:20:52;1.13;;;0.60;;
24137;SDS011;17947;50.672;6.076;2023-03-14T03:23:18;0.60;;;0.40;;
24137;SDS011;17947;50.672;6.076;2023-03-14T03:25:48;0.30;;;0.30;;
24137;SDS011;17947;50.672;6.076;2023-03-14T03:28:14;1.10;;;0.50;;
24137;SDS011;17947;50.672;6.076;2023-03-14T03:30:40;0.57;;;0.50;;
24137;SDS011;17947;50.672;6.076;2023-03-14T03:33:06;0.43;;;0.38;;
24137;SDS011;17947;50.672;6.076;2023-03-14T03:35:32;0.63;;;0.40;;
24137;SDS011;17947;50.672;6.076;2023-03-14T03:37:58;0.50;;;0.43;;
24137;SDS011;17947;50.672;6.076;2023-03-14T03:40:24;0.65;;;0.50;;
24137;SDS011;17947;50.672;6.076;2023-03-14T03:42:51;0.80;;;0.50;;
24137;SDS011;17947;50.672;6.076;2023-03-14T03:45:17;1.10;;;0.50;;
24137;SDS011;17947;50.672;6.076;2023-03-14T03:47:43;1.10;;;0.40;;
24137;SDS011;17947;50.672;6.076;2023-03-14T03:50:09;0.80;;;0.50;;
24137;SDS011;17947;50.672;6.076;2023-03-14T03:52:35;0.40;;;0.30;;
24137;SDS011;17947;50.672;6.076;2023-03-14T03:55:01;0.30;;;0.30;;
24137;SDS011;17947;50.672;6.076;2023-03-14T03:57:27;0.43;;;0.30;;
24137;SDS011;17947;50.672;6.076;2023-03-14T03:59:53;0.40;;;0.40;;
24137;SDS011;17947;50.672;6.076;2023-03-14T04:02:19;0.70;;;0.50;;
24137;SDS011;17947;50.672;6.076;2023-03-14T04:04:45;0.30;;;0.30;;
24137;SDS011;17947;50.672;6.076;2023-03-14T04:07:11;0.85;;;0.43;;
24137;SDS011;17947;50.672;6.076;2023-03-14T04:09:39;0.73;;;0.30;;
24137;SDS011;17947;50.672;6.076;2023-03-14T04:12:05;0.43;;;0.40;;
24137;SDS011;17947;50.672;6.076;2023-03-14T04:14:31;0.73;;;0.40;;
24137;SDS011;17947;50.672;6.076;2023-03-14T04:16:57;0.65;;;0.40;;
24137;SDS011;17947;50.672;6.076;2023-03-14T04:19:23;1.15;;;0.43;;
24137;SDS011;17947;50.672;6.076;2023-03-14T04:21:49;0.70;;;0.40;;
24137;SDS011;17947;50.672;6.076;2023-03-14T04:24:15;0.45;;;0.40;;
24137;SDS011;17947;50.672;6.076;2023-03-14T04:26:41;0.50;;;0.40;;
24137;SDS011;17947;50.672;6.076;2023-03-14T04:29:07;0.20;;;0.20;;
24137;SDS011;17947;50.672;6.076;2023-03-14T04:31:33;0.32;;;0.30;;
24137;SDS011;17947;50.672;6.076;2023-03-14T04:33:59;0.85;;;0.40;;
24137;SDS011;17947;50.672;6.076;2023-03-14T04:36:25;0.52;;;0.38;;
24137;SDS011;17947;50.672;6.076;2023-03-14T04:38:51;0.20;;;0.20;;
24137;SDS011;17947;50.672;6.076;2023-03-14T04:41:17;0.55;;;0.38;;
24137;SDS011;17947;50.672;6.076;2023-03-14T04:43:43;1.33;;;0.30;;
24137;SDS011;17947;50.672;6.076;2023-03-14T04:46:09;0.75;;;0.35;;
24137;SDS011;17947;50.672;6.076;2023-03-14T04:48:35;0.40;;;0.30;;
24137;SDS011;17947;50.672;6.076;2023-03-14T04:51:02;0.30;;;0.30;;
24137;SDS011;17947;50.672;6.076;2023-03-14T04:53:28;0.40;;;0.38;;
24137;SDS011;17947;50.672;6.076;2023-03-14T04:55:56;0.47;;;0.35;;
24137;SDS011;17947;50.672;6.076;2023-03-14T04:58:22;0.40;;;0.30;;
24137;SDS011;17947;50.672;6.076;2023-03-14T05:00:49;0.30;;;0.20;;
24137;SDS011;17947;50.672;6.076;2023-03-14T05:03:16;0.88;;;0.40;;
24137;SDS011;17947;50.672;6.076;2023-03-14T05:05:42;0.30;;;0.30;;
24137;SDS011;17947;50.672;6.076;2023-03-14T05:08:08;0.50;;;0.30;;
24137;SDS011;17947;50.672;6.076;2023-03-14T05:10:34;0.32;;;0.32;;
24137;SDS011;17947;50.672;6.076;2023-03-14T05:13:00;0.40;;;0.40;;
24137;SDS011;17947;50.672;6.076;2023-03-14T05:15:26;0.63;;;0.30;;
24137;SDS011;17947;50.672;6.076;2023-03-14T05:17:52;0.25;;;0.25;;
24137;SDS011;17947;50.672;6.076;2023-03-14T05:20:19;0.20;;;0.20;;
24137;SDS011;17947;50.672;6.076;2023-03-14T05:22:45;0.22;;;0.20;;
24137;SDS011;17947;50.672;6.076;2023-03-14T05:25:11;0.20;;;0.20;;
24137;SDS011;17947;50.672;6.076;2023-03-14T05:27:37;0.43;;;0.20;;
24137;SDS011;17947;50.672;6.076;2023-03-14T05:30:04;0.32;;;0.25;;
24137;SDS011;17947;50.672;6.076;2023-03-14T05:32:31;0.20;;;0.20;;
24137;SDS011;17947;50.672;6.076;2023-03-14T05:34:57;0.20;;;0.20;;
24137;SDS011;17947;50.672;6.076;2023-03-14T05:37:27;0.40;;;0.30;;
24137;SDS011;17947;50.672;6.076;2023-03-14T05:39:53;0.28;;;0.28;;
24137;SDS011;17947;50.672;6.076;2023-03-14T05:42:19;0.80;;;0.55;;
24137;SDS011;17947;50.672;6.076;2023-03-14T05:44:45;0.20;;;0.20;;
24137;SDS011;17947;50.672;6.076;2023-03-14T05:47:11;0.40;;;0.30;;
24137;SDS011;17947;50.672;6.076;2023-03-14T05:49:37;0.40;;;0.40;;
24137;SDS011;17947;50.672;6.076;2023-03-14T05:52:03;0.47;;;0.30;;
24137;SDS011;17947;50.672;6.076;2023-03-14T05:54:29;0.17;;;0.17;;
24137;SDS011;17947;50.672;6.076;2023-03-14T05:56:55;0.85;;;0.20;;
24137;SDS011;17947;50.672;6.076;2023-03-14T05:59:21;0.30;;;0.30;;
24137;SDS011;17947;50.672;6.076;2023-03-14T06:01:47;0.28;;;0.28;;
24137;SDS011;17947;50.672;6.076;2023-03-14T06:04:13;0.20;;;0.20;;
24137;SDS011;17947;50.672;6.076;2023-03-14T06:06:39;0.20;;;0.20;;
24137;SDS011;17947;50.672;6.076;2023-03-14T06:09:05;0.22;;;0.22;;
24137;SDS011;17947;50.672;6.076;2023-03-14T06:11:31;0.32;;;0.22;;
24137;SDS011;17947;50.672;6.076;2023-03-14T06:13:57;0.73;;;0.30;;
24137;SDS011;17947;50.672;6.076;2023-03-14T06:16:23;0.10;;;0.10;;
24137;SDS011;17947;50.672;6.076;2023-03-14T06:18:49;0.20;;;0.20;;
24137;SDS011;17947;50.672;6.076;2023-03-14T06:21:17;0.22;;;0.20;;
24137;SDS011;17947;50.672;6.076;2023-03-14T06:23:43;0.20;;;0.20;;
24137;SDS011;17947;50.672;6.076;2023-03-14T06:26:09;0.50;;;0.30;;
24137;SDS011;17947;50.672;6.076;2023-03-14T06:28:36;0.20;;;0.20;;
24137;SDS011;17947;50.672;6.076;2023-03-14T06:31:02;0.30;;;0.30;;
24137;SDS011;17947;50.672;6.076;2023-03-14T06:33:29;0.30;;;0.30;;
24137;SDS011;17947;50.672;6.076;2023-03-14T06:35:55;0.20;;;0.20;;
24137;SDS011;17947;50.672;6.076;2023-03-14T06:38:21;0.20;;;0.20;;
24137;SDS011;17947;50.672;6.076;2023-03-14T06:40:47;0.90;;;0.20;;
24137;SDS011;17947;50.672;6.076;2023-03-14T06:43:13;0.20;;;0.20;;
24137;SDS011;17947;50.672;6.076;2023-03-14T06:45:39;0.20;;;0.20;;
24137;SDS011;17947;50.672;6.076;2023-03-14T06:48:05;0.20;;;0.20;;
24137;SDS011;17947;50.672;6.076;2023-03-14T06:50:31;0.50;;;0.30;;
24137;SDS011;17947;50.672;6.076;2023-03-14T06:52:57;0.25;;;0.22;;
24137;SDS011;17947;50.672;6.076;2023-03-14T06:55:23;0.10;;;0.10;;
24137;SDS011;17947;50.672;6.076;2023-03-14T06:57:49;0.20;;;0.20;;
24137;SDS011;17947;50.672;6.076;2023-03-14T07:00:15;0.20;;;0.20;;
24137;SDS011;17947;50.672;6.076;2023-03-14T07:02:41;0.20;;;0.20;;
24137;SDS011;17947;50.672;6.076;2023-03-14T07:05:07;0.20;;;0.20;;
24137;SDS011;17947;50.672;6.076;2023-03-14T07:07:35;0.20;;;0.20;;
24137;SDS011;17947;50.672;6.076;2023-03-14T07:10:01;0.13;;;0.13;;
24137;SDS011;17947;50.672;6.076;2023-03-14T07:12:27;0.20;;;0.20;;
24137;SDS011;17947;50.672;6.076;2023-03-14T07:14:53;0.20;;;0.20;;
24137;SDS011;17947;50.672;6.076;2023-03-14T07:17:19;0.10;;;0.10;;
24137;SDS011;17947;50.672;6.076;2023-03-14T07:19:46;0.15;;;0.15;;
24137;SDS011;17947;50.672;6.076;2023-03-14T07:22:12;0.20;;;0.20;;
24137;SDS011;17947;50.672;6.076;2023-03-14T07:24:38;0.40;;;0.20;;
24137;SDS011;17947;50.672;6.076;2023-03-14T07:27:04;0.20;;;0.20;;
24137;SDS011;17947;50.672;6.076;2023-03-14T07:29:30;3.10;;;0.30;;
24137;SDS011;17947;50.672;6.076;2023-03-14T07:31:56;1.33;;;0.40;;
24137;SDS011;17947;50.672;6.076;2023-03-14T07:34:22;0.93;;;0.20;;
24137;SDS011;17947;50.672;6.076;2023-03-14T07:36:49;1.83;;;0.28;;
24137;SDS011;17947;50.672;6.076;2023-03-14T07:39:15;1.70;;;0.28;;
24137;SDS011;17947;50.672;6.076;2023-03-14T07:41:41;0.20;;;0.20;;
24137;SDS011;17947;50.672;6.076;2023-03-14T07:44:07;0.40;;;0.20;;
24137;SDS011;17947;50.672;6.076;2023-03-14T07:46:33;0.10;;;0.10;;
24137;SDS011;17947;50.672;6.076;2023-03-14T07:48:59;0.20;;;0.20;;
24137;SDS011;17947;50.672;6.076;2023-03-14T07:51:25;2.60;;;0.20;;
24137;SDS011;17947;50.672;6.076;2023-03-14T07:53:52;0.30;;;0.20;;
24137;SDS011;17947;50.672;6.076;2023-03-14T07:56:18;0.38;;;0.30;;
24137;SDS011;17947;50.672;6.076;2023-03-14T07:58:44;0.90;;;0.20;;
24137;SDS011;17947;50.672;6.076;2023-03-14T08:01:10;0.32;;;0.32;;
24137;SDS011;17947;50.672;6.076;2023-03-14T08:03:36;0.75;;;0.32;;
24137;SDS011;17947;50.672;6.076;2023-03-14T08:06:02;0.20;;;0.20;;
24137;SDS011;17947;50.672;6.076;2023-03-14T08:08:28;1.00;;;0.30;;
24137;SDS011;17947;50.672;6.076;2023-03-14T08:10:54;1.08;;;0.30;;
24137;SDS011;17947;50.672;6.076;2023-03-14T08:13:21;1.60;;;0.20;;
24137;SDS011;17947;50.672;6.076;2023-03-14T08:15:48;0.60;;;0.20;;
24137;SDS011;17947;50.672;6.076;2023-03-14T08:18:16;0.65;;;0.28;;
24137;SDS011;17947;50.672;6.076;2023-03-14T08:20:42;0.22;;;0.22;;
24137;SDS011;17947;50.672;6.076;2023-03-14T08:23:08;0.52;;;0.30;;
24137;SDS011;17947;50.672;6.076;2023-03-14T08:25:34;0.30;;;0.20;;
24137;SDS011;17947;50.672;6.076;2023-03-14T08:28:00;0.30;;;0.20;;
24137;SDS011;17947;50.672;6.076;2023-03-14T08:30:27;0.35;;;0.20;;
24137;SDS011;17947;50.672;6.076;2023-03-14T08:32:53;0.15;;;0.15;;
24137;SDS011;17947;50.672;6.076;2023-03-14T08:35:19;0.30;;;0.30;;
24137;SDS011;17947;50.672;6.076;2023-03-14T08:37:45;0.20;;;0.20;;
24137;SDS011;17947;50.672;6.076;2023-03-14T08:40:12;0.17;;;0.17;;
24137;SDS011;17947;50.672;6.076;2023-03-14T08:42:38;0.73;;;0.20;;
24137;SDS011;17947;50.672;6.076;2023-03-14T08:45:05;0.30;;;0.30;;
24137;SDS011;17947;50.672;6.076;2023-03-14T08:47:31;0.17;;;0.13;;
24137;SDS011;17947;50.672;6.076;2023-03-14T08:49:57;0.20;;;0.20;;
24137;SDS011;17947;50.672;6.076;2023-03-14T08:52:23;0.25;;;0.20;;
24137;SDS011;17947;50.672;6.076;2023-03-14T08:54:49;0.20;;;0.20;;
24137;SDS011;17947;50.672;6.076;2023-03-14T08:57:15;0.30;;;0.20;;
24137;SDS011;17947;50.672;6.076;2023-03-14T08:59:41;1.55;;;0.20;;
24137;SDS011;17947;50.672;6.076;2023-03-14T09:02:11;0.38;;;0.30;;
24137;SDS011;17947;50.672;6.076;2023-03-14T09:04:37;0.60;;;0.30;;
24137;SDS011;17947;50.672;6.076;2023-03-14T09:07:03;0.30;;;0.30;;
24137;SDS011;17947;50.672;6.076;2023-03-14T09:09:29;1.00;;;0.82;;
24137;SDS011;17947;50.672;6.076;2023-03-14T09:11:56;0.75;;;0.45;;
24137;SDS011;17947;50.672;6.076;2023-03-14T09:14:22;0.63;;;0.50;;
24137;SDS011;17947;50.672;6.076;2023-03-14T09:16:49;0.50;;;0.50;;
24137;SDS011;17947;50.672;6.076;2023-03-14T09:19:15;1.08;;;0.35;;
24137;SDS011;17947;50.672;6.076;2023-03-14T09:21:41;0.30;;;0.30;;
24137;SDS011;17947;50.672;6.076;2023-03-14T09:24:07;0.40;;;0.40;;
24137;SDS011;17947;50.672;6.076;2023-03-14T09:26:33;0.47;;;0.30;;
24137;SDS011;17947;50.672;6.076;2023-03-14T09:28:59;0.30;;;0.30;;
24137;SDS011;17947;50.672;6.076;2023-03-14T09:31:25;1.50;;;0.30;;
24137;SDS011;17947;50.672;6.076;2023-03-14T09:33:52;0.30;;;0.30;;
24137;SDS011;17947;50.672;6.076;2023-03-14T09:36:18;0.30;;;0.30;;
24137;SDS011;17947;50.672;6.076;2023-03-14T09:38:44;0.35;;;0.32;;
24137;SDS011;17947;50.672;6.076;2023-03-14T09:41:15;0.40;;;0.25;;
24137;SDS011;17947;50.672;6.076;2023-03-14T09:43:41;0.88;;;0.20;;
24137;SDS011;17947;50.672;6.076;2023-03-14T09:46:07;0.47;;;0.28;;
24137;SDS011;17947;50.672;6.076;2023-03-14T09:48:35;0.35;;;0.35;;
24137;SDS011;17947;50.672;6.076;2023-03-14T09:51:03;0.30;;;0.30;;
24137;SDS011;17947;50.672;6.076;2023-03-14T09:53:37;0.20;;;0.20;;
24137;SDS011;17947;50.672;6.076;2023-03-14T09:56:03;1.05;;;0.40;;
24137;SDS011;17947;50.672;6.076;2023-03-14T09:58:30;0.30;;;0.30;;
24137;SDS011;17947;50.672;6.076;2023-03-14T10:00:56;0.52;;;0.30;;
24137;SDS011;17947;50.672;6.076;2023-03-14T10:03:28;0.50;;;0.30;;
24137;SDS011;17947;50.672;6.076;2023-03-14T10:05:54;0.70;;;0.30;;
24137;SDS011;17947;50.672;6.076;2023-03-14T10:08:21;0.28;;;0.28;;
24137;SDS011;17947;50.672;6.076;2023-03-14T10:10:47;0.20;;;0.20;;
24137;SDS011;17947;50.672;6.076;2023-03-14T10:13:21;0.30;;;0.30;;
24137;SDS011;17947;50.672;6.076;2023-03-14T10:15:53;0.40;;;0.40;;
24137;SDS011;17947;50.672;6.076;2023-03-14T10:18:19;0.30;;;0.30;;
24137;SDS011;17947;50.672;6.076;2023-03-14T10:20:47;0.90;;;0.30;;
24137;SDS011;17947;50.672;6.076;2023-03-14T10:25:43;0.65;;;0.40;;
24137;SDS011;17947;50.672;6.076;2023-03-14T10:28:26;0.30;;;0.30;;
24137;SDS011;17947;50.672;6.076;2023-03-14T10:30:52;0.40;;;0.40;;
24137;SDS011;17947;50.672;6.076;2023-03-14T10:33:31;0.40;;;0.38;;
24137;SDS011;17947;50.672;6.076;2023-03-14T10:35:58;0.40;;;0.22;;
24137;SDS011;17947;50.672;6.076;2023-03-14T10:38:26;0.30;;;0.30;;
24137;SDS011;17947;50.672;6.076;2023-03-14T10:40:52;0.82;;;0.40;;
24137;SDS011;17947;50.672;6.076;2023-03-14T10:43:19;0.40;;;0.30;;
24137;SDS011;17947;50.672;6.076;2023-03-14T10:45:57;0.22;;;0.20;;
24137;SDS011;17947;50.672;6.076;2023-03-14T10:51:06;0.60;;;0.30;;
24137;SDS011;17947;50.672;6.076;2023-03-14T10:53:34;0.80;;;0.40;;
24137;SDS011;17947;50.672;6.076;2023-03-14T10:56:02;0.45;;;0.45;;
24137;SDS011;17947;50.672;6.076;2023-03-14T10:58:30;0.30;;;0.30;;
24137;SDS011;17947;50.672;6.076;2023-03-14T11:03:24;0.30;;;0.30;;
24137;SDS011;17947;50.672;6.076;2023-03-14T11:05:53;0.45;;;0.45;;
24137;SDS011;17947;50.672;6.076;2023-03-14T11:08:26;0.52;;;0.40;;
24137;SDS011;17947;50.672;6.076;2023-03-14T11:10:54;1.67;;;0.50;;
24137;SDS011;17947;50.672;6.076;2023-03-14T11:13:43;0.45;;;0.40;;
24137;SDS011;17947;50.672;6.076;2023-03-14T11:21:18;0.47;;;0.47;;
24137;SDS011;17947;50.672;6.076;2023-03-14T11:23:55;0.32;;;0.30;;
24137;SDS011;17947;50.672;6.076;2023-03-14T11:27:00;0.30;;;0.30;;
24137;SDS011;17947;50.672;6.076;2023-03-14T11:31:50;0.35;;;0.35;;
24137;SDS011;17947;50.672;6.076;2023-03-14T11:36:52;0.30;;;0.30;;
24137;SDS011;17947;50.672;6.076;2023-03-14T11:39:22;0.40;;;0.40;;
24137;SDS011;17947;50.672;6.076;2023-03-14T11:41:53;0.57;;;0.40;;
24137;SDS011;17947;50.672;6.076;2023-03-14T11:51:58;0.22;;;0.22;;
24137;SDS011;17947;50.672;6.076;2023-03-14T11:54:34;0.88;;;0.40;;
24137;SDS011;17947;50.672;6.076;2023-03-14T11:57:02;0.73;;;0.47;;
24137;SDS011;17947;50.672;6.076;2023-03-14T12:04:42;1.45;;;0.40;;
24137;SDS011;17947;50.672;6.076;2023-03-14T12:07:15;0.32;;;0.30;;
24137;SDS011;17947;50.672;6.076;2023-03-14T12:09:43;0.40;;;0.40;;
24137;SDS011;17947;50.672;6.076;2023-03-14T12:12:11;0.98;;;0.40;;
24137;SDS011;17947;50.672;6.076;2023-03-14T12:14:44;0.30;;;0.30;;
24137;SDS011;17947;50.672;6.076;2023-03-14T12:17:18;0.50;;;0.35;;
24137;SDS011;17947;50.672;6.076;2023-03-14T12:19:45;0.25;;;0.20;;
24137;SDS011;17947;50.672;6.076;2023-03-14T12:27:41;0.22;;;0.22;;
24137;SDS011;17947;50.672;6.076;2023-03-14T12:35:37;0.30;;;0.30;;
24137;SDS011;17947;50.672;6.076;2023-03-14T12:38:04;0.40;;;0.30;;
24137;SDS011;17947;50.672;6.076;2023-03-14T12:40:34;0.40;;;0.40;;
24137;SDS011;17947;50.672;6.076;2023-03-14T12:43:04;0.30;;;0.30;;
24137;SDS011;17947;50.672;6.076;2023-03-14T12:45:31;0.40;;;0.22;;
24137;SDS011;17947;50.672;6.076;2023-03-14T12:50:46;0.63;;;0.40;;
24137;SDS011;17947;50.672;6.076;2023-03-14T12:58:28;0.55;;;0.50;;
24137;SDS011;17947;50.672;6.076;2023-03-14T13:00:59;0.52;;;0.50;;
24137;SDS011;17947;50.672;6.076;2023-03-14T13:03:26;0.95;;;0.60;;
24137;SDS011;17947;50.672;6.076;2023-03-14T13:06:02;0.45;;;0.45;;
24137;SDS011;17947;50.672;6.076;2023-03-14T13:08:34;0.30;;;0.30;;
24137;SDS011;17947;50.672;6.076;2023-03-14T13:11:01;0.38;;;0.30;;
24137;SDS011;17947;50.672;6.076;2023-03-14T13:13:28;0.30;;;0.30;;
24137;SDS011;17947;50.672;6.076;2023-03-14T13:15:58;0.50;;;0.45;;
24137;SDS011;17947;50.672;6.076;2023-03-14T13:18:30;0.98;;;0.40;;
24137;SDS011;17947;50.672;6.076;2023-03-14T13:21:02;0.32;;;0.32;;
24137;SDS011;17947;50.672;6.076;2023-03-14T13:23:30;0.73;;;0.40;;
24137;SDS011;17947;50.672;6.076;2023-03-14T13:25:57;0.35;;;0.30;;
24137;SDS011;17947;50.672;6.076;2023-03-14T13:28:25;0.40;;;0.40;;
24137;SDS011;17947;50.672;6.076;2023-03-14T13:30:54;0.30;;;0.30;;
24137;SDS011;17947;50.672;6.076;2023-03-14T13:33:21;0.50;;;0.47;;
24137;SDS011;17947;50.672;6.076;2023-03-14T13:38:21;0.52;;;0.40;;
24137;SDS011;17947;50.672;6.076;2023-03-14T13:40:48;0.68;;;0.30;;
24137;SDS011;17947;50.672;6.076;2023-03-14T13:43:19;0.47;;;0.47;;
24137;SDS011;17947;50.672;6.076;2023-03-14T13:45:53;1.15;;;0.40;;
24137;SDS011;17947;50.672;6.076;2023-03-14T13:48:19;0.30;;;0.30;;
24137;SDS011;17947;50.672;6.076;2023-03-14T13:50:53;0.30;;;0.30;;
24137;SDS011;17947;50.672;6.076;2023-03-14T13:53:20;0.38;;;0.38;;
24137;SDS011;17947;50.672;6.076;2023-03-14T13:55:46;1.02;;;0.40;;
24137;SDS011;17947;50.672;6.076;2023-03-14T13:58:18;0.40;;;0.40;;
24137;SDS011;17947;50.672;6.076;2023-03-14T14:00:52;0.43;;;0.40;;
24137;SDS011;17947;50.672;6.076;2023-03-14T14:03:19;0.25;;;0.25;;
24137;SDS011;17947;50.672;6.076;2023-03-14T14:05:45;0.77;;;0.50;;
24137;SDS011;17947;50.672;6.076;2023-03-14T14:08:12;0.52;;;0.30;;
24137;SDS011;17947;50.672;6.076;2023-03-14T14:10:38;0.50;;;0.50;;
24137;SDS011;17947;50.672;6.076;2023-03-14T14:13:06;0.52;;;0.25;;
24137;SDS011;17947;50.672;6.076;2023-03-14T14:15:35;0.52;;;0.43;;
24137;SDS011;17947;50.672;6.076;2023-03-14T14:18:06;0.55;;;0.38;;
24137;SDS011;17947;50.672;6.076;2023-03-14T14:20:43;0.40;;;0.40;;
24137;SDS011;17947;50.672;6.076;2023-03-14T14:23:10;0.30;;;0.30;;
24137;SDS011;17947;50.672;6.076;2023-03-14T14:25:37;0.30;;;0.30;;
24137;SDS011;17947;50.672;6.076;2023-03-14T14:30:58;0.50;;;0.30;;
24137;SDS011;17947;50.672;6.076;2023-03-14T14:33:25;0.30;;;0.30;;
24137;SDS011;17947;50.672;6.076;2023-03-14T14:35:52;0.95;;;0.40;;
24137;SDS011;17947;50.672;6.076;2023-03-14T14:38:18;0.30;;;0.30;;
24137;SDS011;17947;50.672;6.076;2023-03-14T14:40:46;0.30;;;0.30;;
24137;SDS011;17947;50.672;6.076;2023-03-14T14:43:21;0.30;;;0.30;;
24137;SDS011;17947;50.672;6.076;2023-03-14T14:45:51;0.40;;;0.40;;
24137;SDS011;17947;50.672;6.076;2023-03-14T14:48:19;0.55;;;0.40;;
24137;SDS011;17947;50.672;6.076;2023-03-14T14:50:56;0.40;;;0.40;;
24137;SDS011;17947;50.672;6.076;2023-03-14T14:55:52;0.73;;;0.50;;
24137;SDS011;17947;50.672;6.076;2023-03-14T15:00:49;0.77;;;0.45;;
24137;SDS011;17947;50.672;6.076;2023-03-14T15:03:17;0.75;;;0.40;;
24137;SDS011;17947;50.672;6.076;2023-03-14T15:05:43;0.40;;;0.40;;
24137;SDS011;17947;50.672;6.076;2023-03-14T15:08:09;0.40;;;0.40;;
24137;SDS011;17947;50.672;6.076;2023-03-14T15:10:36;0.70;;;0.40;;
24137;SDS011;17947;50.672;6.076;2023-03-14T15:13:02;0.60;;;0.40;;
24137;SDS011;17947;50.672;6.076;2023-03-14T15:15:28;0.50;;;0.50;;
24137;SDS011;17947;50.672;6.076;2023-03-14T15:17:54;0.88;;;0.40;;
24137;SDS011;17947;50.672;6.076;2023-03-14T15:20:20;0.98;;;0.50;;
24137;SDS011;17947;50.672;6.076;2023-03-14T15:22:48;0.80;;;0.60;;
24137;SDS011;17947;50.672;6.076;2023-03-14T15:25:14;0.55;;;0.50;;
24137;SDS011;17947;50.672;6.076;2023-03-14T15:27:40;1.00;;;0.50;;
24137;SDS011;17947;50.672;6.076;2023-03-14T15:30:14;1.65;;;0.60;;
24137;SDS011;17947;50.672;6.076;2023-03-14T15:32:41;0.82;;;0.70;;
24137;SDS011;17947;50.672;6.076;2023-03-14T15:35:07;1.30;;;0.70;;
24137;SDS011;17947;50.672;6.076;2023-03-14T15:37:33;0.77;;;0.60;;
24137;SDS011;17947;50.672;6.076;2023-03-14T15:40:00;1.52;;;0.60;;
24137;SDS011;17947;50.672;6.076;2023-03-14T15:42:28;1.20;;;0.70;;
24137;SDS011;17947;50.672;6.076;2023-03-14T15:44:54;1.27;;;0.70;;
24137;SDS011;17947;50.672;6.076;2023-03-14T15:47:19;1.77;;;0.80;;
24137;SDS011;17947;50.672;6.076;2023-03-14T15:49:46;1.83;;;0.85;;
24137;SDS011;17947;50.672;6.076;2023-03-14T15:52:11;1.45;;;0.70;;
24137;SDS011;17947;50.672;6.076;2023-03-14T15:54:37;2.60;;;0.93;;
24137;SDS011;17947;50.672;6.076;2023-03-14T15:57:03;0.82;;;0.70;;